sensor_id;sensor_type;location;lat;lon;timestamp;P1;durP1;ratioP1;P2;durP2;ratioP2
3769;SDS011;1900;48.890;9.190;2022-11-20T00:02:15;16.43;;;11.37;;
3769;SDS011;1900;48.890;9.190;2022-11-20T00:04:41;20.47;;;11.80;;
3769;SDS011;1900;48.890;9.190;2022-11-20T00:07:07;17.47;;;10.10;;
3769;SDS011;1900;48.890;9.190;2022-11-20T00:09:32;14.60;;;10.50;;
3769;SDS011;1900;48.890;9.190;2022-11-20T00:11:58;19.23;;;10.73;;
3769;SDS011;1900;48.890;9.190;2022-11-20T00:14:24;20.07;;;12.10;;
3769;SDS011;1900;48.890;9.190;2022-11-20T00:16:49;19.97;;;11.90;;
3769;SDS011;1900;48.890;9.190;2022-11-20T00:19:15;19.50;;;11.03;;
3769;SDS011;1900;48.890;9.190;2022-11-20T00:21:40;18.83;;;11.27;;
3769;SDS011;1900;48.890;9.190;2022-11-20T00:24:07;25.93;;;11.00;;
3769;SDS011;1900;48.890;9.190;2022-11-20T00:26:34;17.13;;;9.63;;
3769;SDS011;1900;48.890;9.190;2022-11-20T00:29:00;16.90;;;8.73;;
3769;SDS011;1900;48.890;9.190;2022-11-20T00:31:27;14.23;;;9.20;;
3769;SDS011;1900;48.890;9.190;2022-11-20T00:33:53;13.80;;;9.07;;
3769;SDS011;1900;48.890;9.190;2022-11-20T00:36:24;12.90;;;8.60;;
3769;SDS011;1900;48.890;9.190;2022-11-20T00:38:55;11.00;;;8.50;;
3769;SDS011;1900;48.890;9.190;2022-11-20T00:41:22;10.87;;;8.03;;
3769;SDS011;1900;48.890;9.190;2022-11-20T00:43:48;13.20;;;8.47;;
3769;SDS011;1900;48.890;9.190;2022-11-20T00:46:16;13.57;;;9.50;;
3769;SDS011;1900;48.890;9.190;2022-11-20T00:48:43;12.07;;;8.43;;
3769;SDS011;1900;48.890;9.190;2022-11-20T00:51:14;14.77;;;9.00;;
3769;SDS011;1900;48.890;9.190;2022-11-20T00:53:41;14.30;;;9.00;;
3769;SDS011;1900;48.890;9.190;2022-11-20T00:56:08;18.67;;;9.90;;
3769;SDS011;1900;48.890;9.190;2022-11-20T00:58:37;16.13;;;10.10;;
3769;SDS011;1900;48.890;9.190;2022-11-20T01:01:05;20.40;;;11.43;;
3769;SDS011;1900;48.890;9.190;2022-11-20T01:03:39;20.97;;;10.57;;
3769;SDS011;1900;48.890;9.190;2022-11-20T01:06:07;16.60;;;9.60;;
3769;SDS011;1900;48.890;9.190;2022-11-20T01:08:35;10.97;;;8.20;;
3769;SDS011;1900;48.890;9.190;2022-11-20T01:11:05;11.57;;;9.27;;
3769;SDS011;1900;48.890;9.190;2022-11-20T01:13:36;13.80;;;9.50;;
3769;SDS011;1900;48.890;9.190;2022-11-20T01:16:03;19.20;;;11.80;;
3769;SDS011;1900;48.890;9.190;2022-11-20T01:18:43;15.03;;;9.00;;
3769;SDS011;1900;48.890;9.190;2022-11-20T01:21:12;14.70;;;8.83;;
3769;SDS011;1900;48.890;9.190;2022-11-20T01:23:41;17.23;;;10.67;;
3769;SDS011;1900;48.890;9.190;2022-11-20T01:26:12;16.57;;;9.17;;
3769;SDS011;1900;48.890;9.190;2022-11-20T01:28:39;16.33;;;10.20;;
3769;SDS011;1900;48.890;9.190;2022-11-20T01:33:40;16.13;;;9.93;;
3769;SDS011;1900;48.890;9.190;2022-11-20T01:36:06;16.00;;;9.23;;
3769;SDS011;1900;48.890;9.190;2022-11-20T01:38:33;14.77;;;8.90;;
3769;SDS011;1900;48.890;9.190;2022-11-20T01:40:59;12.87;;;9.30;;
3769;SDS011;1900;48.890;9.190;2022-11-20T01:43:25;15.20;;;9.60;;
3769;SDS011;1900;48.890;9.190;2022-11-20T01:46:01;17.50;;;10.23;;
3769;SDS011;1900;48.890;9.190;2022-11-20T01:51:10;12.57;;;8.83;;
3769;SDS011;1900;48.890;9.190;2022-11-20T01:53:42;15.10;;;9.40;;
3769;SDS011;1900;48.890;9.190;2022-11-20T01:56:08;13.63;;;9.37;;
3769;SDS011;1900;48.890;9.190;2022-11-20T01:58:37;14.80;;;9.13;;
3769;SDS011;1900;48.890;9.190;2022-11-20T02:01:06;12.10;;;8.43;;
3769;SDS011;1900;48.890;9.190;2022-11-20T02:03:31;12.10;;;8.30;;
3769;SDS011;1900;48.890;9.190;2022-11-20T02:06:14;11.57;;;8.07;;
3769;SDS011;1900;48.890;9.190;2022-11-20T02:08:45;12.83;;;7.70;;
3769;SDS011;1900;48.890;9.190;2022-11-20T02:11:11;11.87;;;6.97;;
3769;SDS011;1900;48.890;9.190;2022-11-20T02:13:37;14.57;;;8.10;;
3769;SDS011;1900;48.890;9.190;2022-11-20T02:16:20;11.20;;;7.83;;
3769;SDS011;1900;48.890;9.190;2022-11-20T02:18:48;12.30;;;8.27;;
3769;SDS011;1900;48.890;9.190;2022-11-20T02:32:33;9.23;;;7.07;;
3769;SDS011;1900;48.890;9.190;2022-11-20T02:37:45;10.50;;;6.47;;
3769;SDS011;1900;48.890;9.190;2022-11-20T02:40:15;7.03;;;5.53;;
3769;SDS011;1900;48.890;9.190;2022-11-20T02:42:41;9.30;;;6.47;;
3769;SDS011;1900;48.890;9.190;2022-11-20T02:45:07;8.83;;;6.27;;
3769;SDS011;1900;48.890;9.190;2022-11-20T02:47:33;10.07;;;6.83;;
3769;SDS011;1900;48.890;9.190;2022-11-20T02:49:59;8.40;;;6.80;;
3769;SDS011;1900;48.890;9.190;2022-11-20T02:52:25;10.13;;;6.37;;
3769;SDS011;1900;48.890;9.190;2022-11-20T02:54:51;10.67;;;6.87;;
3769;SDS011;1900;48.890;9.190;2022-11-20T02:57:17;8.13;;;6.20;;
3769;SDS011;1900;48.890;9.190;2022-11-20T02:59:42;9.27;;;5.80;;
3769;SDS011;1900;48.890;9.190;2022-11-20T03:02:08;9.10;;;6.30;;
3769;SDS011;1900;48.890;9.190;2022-11-20T03:04:34;7.37;;;6.10;;
3769;SDS011;1900;48.890;9.190;2022-11-20T03:06:59;6.43;;;5.40;;
3769;SDS011;1900;48.890;9.190;2022-11-20T03:09:25;8.50;;;5.27;;
3769;SDS011;1900;48.890;9.190;2022-11-20T03:11:51;8.00;;;5.17;;
3769;SDS011;1900;48.890;9.190;2022-11-20T03:14:16;6.67;;;5.03;;
3769;SDS011;1900;48.890;9.190;2022-11-20T03:16:42;5.90;;;4.53;;
3769;SDS011;1900;48.890;9.190;2022-11-20T03:19:08;7.33;;;5.03;;
3769;SDS011;1900;48.890;9.190;2022-11-20T03:21:34;8.10;;;4.80;;
3769;SDS011;1900;48.890;9.190;2022-11-20T03:24:00;8.70;;;4.90;;
3769;SDS011;1900;48.890;9.190;2022-11-20T03:26:27;6.20;;;4.60;;
3769;SDS011;1900;48.890;9.190;2022-11-20T03:28:53;7.43;;;4.77;;
3769;SDS011;1900;48.890;9.190;2022-11-20T03:31:22;5.60;;;4.13;;
3769;SDS011;1900;48.890;9.190;2022-11-20T03:33:53;8.60;;;5.30;;
3769;SDS011;1900;48.890;9.190;2022-11-20T03:36:19;6.20;;;4.00;;
3769;SDS011;1900;48.890;9.190;2022-11-20T03:38:46;5.53;;;4.47;;
3769;SDS011;1900;48.890;9.190;2022-11-20T03:41:19;4.83;;;4.20;;
3769;SDS011;1900;48.890;9.190;2022-11-20T03:43:47;6.00;;;4.27;;
3769;SDS011;1900;48.890;9.190;2022-11-20T03:46:14;4.60;;;3.57;;
3769;SDS011;1900;48.890;9.190;2022-11-20T03:48:39;5.70;;;2.90;;
3769;SDS011;1900;48.890;9.190;2022-11-20T03:51:09;3.53;;;3.23;;
3769;SDS011;1900;48.890;9.190;2022-11-20T03:53:39;4.03;;;3.60;;
3769;SDS011;1900;48.890;9.190;2022-11-20T03:56:07;3.43;;;3.10;;
3769;SDS011;1900;48.890;9.190;2022-11-20T03:58:34;3.40;;;2.90;;
3769;SDS011;1900;48.890;9.190;2022-11-20T04:01:09;4.13;;;2.97;;
3769;SDS011;1900;48.890;9.190;2022-11-20T04:03:35;5.07;;;3.07;;
3769;SDS011;1900;48.890;9.190;2022-11-20T04:06:06;4.47;;;4.07;;
3769;SDS011;1900;48.890;9.190;2022-11-20T04:08:34;7.60;;;3.40;;
3769;SDS011;1900;48.890;9.190;2022-11-20T04:11:12;5.80;;;3.57;;
3769;SDS011;1900;48.890;9.190;2022-11-20T04:13:40;4.10;;;3.10;;
3769;SDS011;1900;48.890;9.190;2022-11-20T04:16:06;8.63;;;3.70;;
3769;SDS011;1900;48.890;9.190;2022-11-20T04:18:33;3.53;;;2.70;;
3769;SDS011;1900;48.890;9.190;2022-11-20T04:20:59;4.40;;;3.20;;
3769;SDS011;1900;48.890;9.190;2022-11-20T04:23:26;10.03;;;3.80;;
3769;SDS011;1900;48.890;9.190;2022-11-20T04:25:52;4.50;;;3.57;;
3769;SDS011;1900;48.890;9.190;2022-11-20T04:28:17;8.00;;;3.70;;
3769;SDS011;1900;48.890;9.190;2022-11-20T04:30:43;3.50;;;3.03;;
3769;SDS011;1900;48.890;9.190;2022-11-20T04:33:09;4.57;;;3.20;;
3769;SDS011;1900;48.890;9.190;2022-11-20T04:35:35;4.57;;;3.37;;
3769;SDS011;1900;48.890;9.190;2022-11-20T04:38:02;3.43;;;3.13;;
3769;SDS011;1900;48.890;9.190;2022-11-20T04:40:27;4.10;;;3.13;;
3769;SDS011;1900;48.890;9.190;2022-11-20T04:42:53;3.87;;;3.47;;
3769;SDS011;1900;48.890;9.190;2022-11-20T04:45:20;6.97;;;2.93;;
3769;SDS011;1900;48.890;9.190;2022-11-20T04:47:45;3.90;;;3.20;;
3769;SDS011;1900;48.890;9.190;2022-11-20T04:50:11;3.40;;;2.77;;
3769;SDS011;1900;48.890;9.190;2022-11-20T04:52:37;3.93;;;3.47;;
3769;SDS011;1900;48.890;9.190;2022-11-20T04:55:03;4.50;;;3.40;;
3769;SDS011;1900;48.890;9.190;2022-11-20T04:57:29;3.23;;;2.93;;
3769;SDS011;1900;48.890;9.190;2022-11-20T04:59:54;3.47;;;3.17;;
3769;SDS011;1900;48.890;9.190;2022-11-20T05:02:20;5.00;;;3.17;;
3769;SDS011;1900;48.890;9.190;2022-11-20T05:04:46;4.07;;;3.67;;
3769;SDS011;1900;48.890;9.190;2022-11-20T05:07:12;5.40;;;4.50;;
3769;SDS011;1900;48.890;9.190;2022-11-20T05:09:38;7.17;;;3.60;;
3769;SDS011;1900;48.890;9.190;2022-11-20T05:12:04;4.93;;;3.53;;
3769;SDS011;1900;48.890;9.190;2022-11-20T05:14:31;6.13;;;3.17;;
3769;SDS011;1900;48.890;9.190;2022-11-20T05:16:57;3.70;;;3.40;;
3769;SDS011;1900;48.890;9.190;2022-11-20T05:19:23;5.70;;;3.90;;
3769;SDS011;1900;48.890;9.190;2022-11-20T05:21:48;4.80;;;3.23;;
3769;SDS011;1900;48.890;9.190;2022-11-20T05:24:14;4.47;;;3.07;;
3769;SDS011;1900;48.890;9.190;2022-11-20T05:26:40;7.07;;;3.17;;
3769;SDS011;1900;48.890;9.190;2022-11-20T05:29:05;6.50;;;4.00;;
3769;SDS011;1900;48.890;9.190;2022-11-20T05:31:31;6.13;;;3.70;;
3769;SDS011;1900;48.890;9.190;2022-11-20T05:33:57;3.93;;;3.47;;
3769;SDS011;1900;48.890;9.190;2022-11-20T05:36:23;4.13;;;3.40;;
3769;SDS011;1900;48.890;9.190;2022-11-20T05:38:49;5.07;;;3.60;;
3769;SDS011;1900;48.890;9.190;2022-11-20T05:41:15;4.83;;;3.33;;
3769;SDS011;1900;48.890;9.190;2022-11-20T05:43:43;4.20;;;3.40;;
3769;SDS011;1900;48.890;9.190;2022-11-20T05:46:11;5.20;;;3.57;;
3769;SDS011;1900;48.890;9.190;2022-11-20T05:48:39;4.63;;;3.40;;
3769;SDS011;1900;48.890;9.190;2022-11-20T05:51:07;4.10;;;3.43;;
3769;SDS011;1900;48.890;9.190;2022-11-20T05:53:34;3.97;;;3.57;;
3769;SDS011;1900;48.890;9.190;2022-11-20T05:56:01;4.10;;;3.10;;
3769;SDS011;1900;48.890;9.190;2022-11-20T05:58:28;3.40;;;3.10;;
3769;SDS011;1900;48.890;9.190;2022-11-20T06:01:02;4.40;;;3.50;;
3769;SDS011;1900;48.890;9.190;2022-11-20T06:03:41;3.77;;;3.30;;
3769;SDS011;1900;48.890;9.190;2022-11-20T06:06:10;4.30;;;3.50;;
3769;SDS011;1900;48.890;9.190;2022-11-20T06:08:37;4.60;;;3.40;;
3769;SDS011;1900;48.890;9.190;2022-11-20T06:11:03;5.03;;;3.23;;
3769;SDS011;1900;48.890;9.190;2022-11-20T06:13:33;4.03;;;3.10;;
3769;SDS011;1900;48.890;9.190;2022-11-20T06:15:59;2.60;;;2.40;;
3769;SDS011;1900;48.890;9.190;2022-11-20T06:18:26;3.50;;;3.20;;
3769;SDS011;1900;48.890;9.190;2022-11-20T06:21:00;4.30;;;3.20;;
3769;SDS011;1900;48.890;9.190;2022-11-20T06:23:33;4.33;;;3.33;;
3769;SDS011;1900;48.890;9.190;2022-11-20T06:26:03;3.97;;;2.70;;
3769;SDS011;1900;48.890;9.190;2022-11-20T06:28:31;3.53;;;2.90;;
3769;SDS011;1900;48.890;9.190;2022-11-20T06:30:57;3.97;;;3.17;;
3769;SDS011;1900;48.890;9.190;2022-11-20T06:33:23;3.93;;;2.57;;
3769;SDS011;1900;48.890;9.190;2022-11-20T06:35:49;7.53;;;3.03;;
3769;SDS011;1900;48.890;9.190;2022-11-20T06:38:14;3.50;;;2.77;;
3769;SDS011;1900;48.890;9.190;2022-11-20T06:40:43;2.93;;;2.63;;
3769;SDS011;1900;48.890;9.190;2022-11-20T06:43:09;4.90;;;2.93;;
3769;SDS011;1900;48.890;9.190;2022-11-20T06:45:35;3.33;;;2.80;;
3769;SDS011;1900;48.890;9.190;2022-11-20T06:48:01;4.27;;;2.70;;
3769;SDS011;1900;48.890;9.190;2022-11-20T06:50:28;4.37;;;2.87;;
3769;SDS011;1900;48.890;9.190;2022-11-20T06:52:53;3.77;;;2.93;;
3769;SDS011;1900;48.890;9.190;2022-11-20T06:55:19;3.87;;;3.00;;
3769;SDS011;1900;48.890;9.190;2022-11-20T06:57:45;3.30;;;2.97;;
3769;SDS011;1900;48.890;9.190;2022-11-20T07:00:11;2.80;;;2.47;;
3769;SDS011;1900;48.890;9.190;2022-11-20T07:02:36;3.00;;;2.70;;
3769;SDS011;1900;48.890;9.190;2022-11-20T07:05:02;3.00;;;2.57;;
3769;SDS011;1900;48.890;9.190;2022-11-20T07:07:28;2.97;;;2.70;;
3769;SDS011;1900;48.890;9.190;2022-11-20T07:09:54;5.87;;;2.87;;
3769;SDS011;1900;48.890;9.190;2022-11-20T07:12:20;5.83;;;2.77;;
3769;SDS011;1900;48.890;9.190;2022-11-20T07:14:45;2.30;;;2.10;;
3769;SDS011;1900;48.890;9.190;2022-11-20T07:17:11;4.97;;;2.97;;
3769;SDS011;1900;48.890;9.190;2022-11-20T07:19:37;2.53;;;2.20;;
3769;SDS011;1900;48.890;9.190;2022-11-20T07:22:04;2.80;;;2.47;;
3769;SDS011;1900;48.890;9.190;2022-11-20T07:24:29;2.80;;;2.60;;
3769;SDS011;1900;48.890;9.190;2022-11-20T07:26:55;3.20;;;2.90;;
3769;SDS011;1900;48.890;9.190;2022-11-20T07:29:21;5.10;;;2.63;;
3769;SDS011;1900;48.890;9.190;2022-11-20T07:31:46;3.43;;;2.43;;
3769;SDS011;1900;48.890;9.190;2022-11-20T07:34:12;2.43;;;2.23;;
3769;SDS011;1900;48.890;9.190;2022-11-20T07:36:38;4.90;;;2.73;;
3769;SDS011;1900;48.890;9.190;2022-11-20T07:39:04;2.83;;;2.63;;
3769;SDS011;1900;48.890;9.190;2022-11-20T07:41:30;5.80;;;2.57;;
3769;SDS011;1900;48.890;9.190;2022-11-20T07:43:56;4.50;;;2.73;;
3769;SDS011;1900;48.890;9.190;2022-11-20T07:46:21;2.50;;;2.30;;
3769;SDS011;1900;48.890;9.190;2022-11-20T07:48:47;2.93;;;2.40;;
3769;SDS011;1900;48.890;9.190;2022-11-20T07:51:13;2.63;;;2.40;;
3769;SDS011;1900;48.890;9.190;2022-11-20T07:53:38;3.47;;;2.60;;
3769;SDS011;1900;48.890;9.190;2022-11-20T07:56:04;2.63;;;2.43;;
3769;SDS011;1900;48.890;9.190;2022-11-20T07:58:30;2.57;;;2.30;;
3769;SDS011;1900;48.890;9.190;2022-11-20T08:00:58;5.30;;;2.37;;
3769;SDS011;1900;48.890;9.190;2022-11-20T08:03:30;2.43;;;2.10;;
3769;SDS011;1900;48.890;9.190;2022-11-20T08:05:59;3.40;;;2.50;;
3769;SDS011;1900;48.890;9.190;2022-11-20T08:08:26;2.37;;;2.17;;
3769;SDS011;1900;48.890;9.190;2022-11-20T08:10:52;2.57;;;2.30;;
3769;SDS011;1900;48.890;9.190;2022-11-20T08:13:17;3.70;;;2.57;;
3769;SDS011;1900;48.890;9.190;2022-11-20T08:16:02;3.77;;;2.50;;
3769;SDS011;1900;48.890;9.190;2022-11-20T08:18:28;2.80;;;2.20;;
3769;SDS011;1900;48.890;9.190;2022-11-20T08:20:53;4.23;;;2.87;;
3769;SDS011;1900;48.890;9.190;2022-11-20T08:23:19;2.87;;;2.60;;
3769;SDS011;1900;48.890;9.190;2022-11-20T08:25:48;2.63;;;2.40;;
3769;SDS011;1900;48.890;9.190;2022-11-20T08:28:16;3.40;;;2.80;;
3769;SDS011;1900;48.890;9.190;2022-11-20T08:30:41;2.97;;;2.37;;
3769;SDS011;1900;48.890;9.190;2022-11-20T08:33:08;5.23;;;2.27;;
3769;SDS011;1900;48.890;9.190;2022-11-20T08:35:34;4.63;;;2.23;;
3769;SDS011;1900;48.890;9.190;2022-11-20T08:38:01;2.23;;;2.03;;
3769;SDS011;1900;48.890;9.190;2022-11-20T08:40:27;2.60;;;2.10;;
3769;SDS011;1900;48.890;9.190;2022-11-20T08:42:53;2.20;;;1.70;;
3769;SDS011;1900;48.890;9.190;2022-11-20T08:45:19;2.03;;;1.80;;
3769;SDS011;1900;48.890;9.190;2022-11-20T08:47:45;2.00;;;1.80;;
3769;SDS011;1900;48.890;9.190;2022-11-20T08:50:12;2.70;;;2.07;;
3769;SDS011;1900;48.890;9.190;2022-11-20T08:52:39;2.30;;;1.70;;
3769;SDS011;1900;48.890;9.190;2022-11-20T08:55:05;1.47;;;1.37;;
3769;SDS011;1900;48.890;9.190;2022-11-20T08:57:32;2.50;;;1.73;;
3769;SDS011;1900;48.890;9.190;2022-11-20T09:00:03;1.73;;;1.60;;
3769;SDS011;1900;48.890;9.190;2022-11-20T09:02:30;2.77;;;2.10;;
3769;SDS011;1900;48.890;9.190;2022-11-20T09:04:57;1.83;;;1.40;;
3769;SDS011;1900;48.890;9.190;2022-11-20T09:07:23;1.97;;;1.20;;
3769;SDS011;1900;48.890;9.190;2022-11-20T09:09:49;1.50;;;1.40;;
3769;SDS011;1900;48.890;9.190;2022-11-20T09:12:14;1.80;;;1.27;;
3769;SDS011;1900;48.890;9.190;2022-11-20T09:14:40;3.30;;;1.80;;
3769;SDS011;1900;48.890;9.190;2022-11-20T09:17:06;2.40;;;1.40;;
3769;SDS011;1900;48.890;9.190;2022-11-20T09:19:32;2.20;;;1.73;;
3769;SDS011;1900;48.890;9.190;2022-11-20T09:21:58;2.47;;;1.50;;
3769;SDS011;1900;48.890;9.190;2022-11-20T09:24:25;2.17;;;1.60;;
3769;SDS011;1900;48.890;9.190;2022-11-20T09:26:51;1.70;;;1.37;;
3769;SDS011;1900;48.890;9.190;2022-11-20T09:29:17;2.20;;;1.50;;
3769;SDS011;1900;48.890;9.190;2022-11-20T09:31:42;2.30;;;1.60;;
3769;SDS011;1900;48.890;9.190;2022-11-20T09:34:08;1.97;;;1.50;;
3769;SDS011;1900;48.890;9.190;2022-11-20T09:36:35;1.77;;;1.33;;
3769;SDS011;1900;48.890;9.190;2022-11-20T09:39:00;1.40;;;1.30;;
3769;SDS011;1900;48.890;9.190;2022-11-20T09:46:36;1.60;;;1.50;;
3769;SDS011;1900;48.890;9.190;2022-11-20T09:54:20;1.80;;;1.70;;
3769;SDS011;1900;48.890;9.190;2022-11-20T09:56:53;1.63;;;1.43;;
3769;SDS011;1900;48.890;9.190;2022-11-20T09:59:27;2.40;;;1.60;;
3769;SDS011;1900;48.890;9.190;2022-11-20T10:02:00;1.30;;;1.20;;
3769;SDS011;1900;48.890;9.190;2022-11-20T10:04:31;2.20;;;2.00;;
3769;SDS011;1900;48.890;9.190;2022-11-20T10:09:51;1.60;;;1.50;;
3769;SDS011;1900;48.890;9.190;2022-11-20T10:15:12;1.80;;;1.70;;
3769;SDS011;1900;48.890;9.190;2022-11-20T10:29:13;1.60;;;1.50;;
3769;SDS011;1900;48.890;9.190;2022-11-20T10:34:46;2.00;;;1.80;;
3769;SDS011;1900;48.890;9.190;2022-11-20T10:37:18;1.87;;;1.77;;
3769;SDS011;1900;48.890;9.190;2022-11-20T10:42:30;1.60;;;1.50;;
3769;SDS011;1900;48.890;9.190;2022-11-20T10:47:45;6.53;;;1.80;;
3769;SDS011;1900;48.890;9.190;2022-11-20T10:50:11;1.70;;;1.60;;
3769;SDS011;1900;48.890;9.190;2022-11-20T11:00:38;2.30;;;2.10;;
3769;SDS011;1900;48.890;9.190;2022-11-20T11:06:08;2.90;;;2.07;;
3769;SDS011;1900;48.890;9.190;2022-11-20T11:08:39;2.30;;;2.10;;
3769;SDS011;1900;48.890;9.190;2022-11-20T11:11:21;2.27;;;2.07;;
3769;SDS011;1900;48.890;9.190;2022-11-20T11:13:48;2.70;;;2.43;;
3769;SDS011;1900;48.890;9.190;2022-11-20T11:16:19;3.13;;;1.90;;
3769;SDS011;1900;48.890;9.190;2022-11-20T11:18:50;2.53;;;2.27;;
3769;SDS011;1900;48.890;9.190;2022-11-20T11:21:25;3.90;;;2.53;;
3769;SDS011;1900;48.890;9.190;2022-11-20T11:24:03;2.50;;;2.30;;
3769;SDS011;1900;48.890;9.190;2022-11-20T11:26:30;3.30;;;2.20;;
3769;SDS011;1900;48.890;9.190;2022-11-20T11:28:56;2.70;;;1.90;;
3769;SDS011;1900;48.890;9.190;2022-11-20T11:31:30;2.77;;;2.50;;
3769;SDS011;1900;48.890;9.190;2022-11-20T11:34:07;4.33;;;2.80;;
3769;SDS011;1900;48.890;9.190;2022-11-20T11:36:38;7.30;;;2.40;;
3769;SDS011;1900;48.890;9.190;2022-11-20T11:39:05;2.73;;;2.20;;
3769;SDS011;1900;48.890;9.190;2022-11-20T11:41:38;5.80;;;2.10;;
3769;SDS011;1900;48.890;9.190;2022-11-20T11:44:15;2.27;;;1.97;;
3769;SDS011;1900;48.890;9.190;2022-11-20T11:47:00;2.60;;;2.03;;
3769;SDS011;1900;48.890;9.190;2022-11-20T11:49:28;2.43;;;2.17;;
3769;SDS011;1900;48.890;9.190;2022-11-20T12:11:04;4.57;;;2.23;;
3769;SDS011;1900;48.890;9.190;2022-11-20T12:16:18;3.83;;;2.17;;
3769;SDS011;1900;48.890;9.190;2022-11-20T12:18:45;2.17;;;1.90;;
3769;SDS011;1900;48.890;9.190;2022-11-20T12:29:17;3.63;;;2.07;;
3769;SDS011;1900;48.890;9.190;2022-11-20T12:35:00;2.00;;;1.77;;
3769;SDS011;1900;48.890;9.190;2022-11-20T12:37:40;3.60;;;1.70;;
3769;SDS011;1900;48.890;9.190;2022-11-20T12:40:20;4.00;;;2.10;;
3769;SDS011;1900;48.890;9.190;2022-11-20T12:48:58;1.80;;;1.70;;
3769;SDS011;1900;48.890;9.190;2022-11-20T12:51:39;5.67;;;1.70;;
3769;SDS011;1900;48.890;9.190;2022-11-20T12:54:36;5.70;;;1.87;;
3769;SDS011;1900;48.890;9.190;2022-11-20T12:57:41;3.10;;;1.70;;
3769;SDS011;1900;48.890;9.190;2022-11-20T13:00:26;3.70;;;1.33;;
3769;SDS011;1900;48.890;9.190;2022-11-20T13:03:01;7.90;;;1.50;;
3769;SDS011;1900;48.890;9.190;2022-11-20T13:08:22;3.17;;;1.73;;
3769;SDS011;1900;48.890;9.190;2022-11-20T13:10:51;1.83;;;1.67;;
3769;SDS011;1900;48.890;9.190;2022-11-20T13:19:12;3.93;;;1.80;;
3769;SDS011;1900;48.890;9.190;2022-11-20T13:21:41;3.43;;;1.70;;
3769;SDS011;1900;48.890;9.190;2022-11-20T13:29:38;6.43;;;1.70;;
3769;SDS011;1900;48.890;9.190;2022-11-20T13:32:15;2.70;;;1.80;;
3769;SDS011;1900;48.890;9.190;2022-11-20T13:37:48;2.27;;;1.60;;
3769;SDS011;1900;48.890;9.190;2022-11-20T13:40:25;3.13;;;1.90;;
3769;SDS011;1900;48.890;9.190;2022-11-20T13:42:55;8.97;;;2.07;;
3769;SDS011;1900;48.890;9.190;2022-11-20T13:45:27;2.60;;;1.70;;
3769;SDS011;1900;48.890;9.190;2022-11-20T13:47:56;1.80;;;1.60;;
3769;SDS011;1900;48.890;9.190;2022-11-20T13:50:32;6.97;;;1.77;;
3769;SDS011;1900;48.890;9.190;2022-11-20T13:56:26;2.17;;;1.60;;
3769;SDS011;1900;48.890;9.190;2022-11-20T14:01:30;1.83;;;1.50;;
3769;SDS011;1900;48.890;9.190;2022-11-20T14:03:57;3.97;;;1.70;;
3769;SDS011;1900;48.890;9.190;2022-11-20T14:06:27;5.27;;;1.83;;
3769;SDS011;1900;48.890;9.190;2022-11-20T14:08:56;2.80;;;1.70;;
3769;SDS011;1900;48.890;9.190;2022-11-20T14:11:29;1.50;;;1.40;;
3769;SDS011;1900;48.890;9.190;2022-11-20T14:14:03;1.77;;;1.50;;
3769;SDS011;1900;48.890;9.190;2022-11-20T14:16:36;2.00;;;1.43;;
3769;SDS011;1900;48.890;9.190;2022-11-20T14:21:46;2.23;;;1.33;;
3769;SDS011;1900;48.890;9.190;2022-11-20T14:24:13;3.23;;;1.43;;
3769;SDS011;1900;48.890;9.190;2022-11-20T14:26:43;4.50;;;1.70;;
3769;SDS011;1900;48.890;9.190;2022-11-20T14:29:13;3.37;;;1.53;;
3769;SDS011;1900;48.890;9.190;2022-11-20T14:31:41;3.37;;;1.83;;
3769;SDS011;1900;48.890;9.190;2022-11-20T14:34:20;4.80;;;2.40;;
3769;SDS011;1900;48.890;9.190;2022-11-20T14:36:55;5.10;;;2.93;;
3769;SDS011;1900;48.890;9.190;2022-11-20T14:39:36;4.37;;;2.70;;
3769;SDS011;1900;48.890;9.190;2022-11-20T14:42:16;6.33;;;3.10;;
3769;SDS011;1900;48.890;9.190;2022-11-20T14:44:47;6.83;;;2.50;;
3769;SDS011;1900;48.890;9.190;2022-11-20T14:47:17;2.63;;;1.70;;
3769;SDS011;1900;48.890;9.190;2022-11-20T14:49:46;3.30;;;2.10;;
3769;SDS011;1900;48.890;9.190;2022-11-20T14:54:51;4.33;;;2.13;;
3769;SDS011;1900;48.890;9.190;2022-11-20T14:57:27;4.70;;;3.13;;
3769;SDS011;1900;48.890;9.190;2022-11-20T15:02:38;2.53;;;2.07;;
3769;SDS011;1900;48.890;9.190;2022-11-20T15:05:09;3.37;;;2.23;;
3769;SDS011;1900;48.890;9.190;2022-11-20T15:07:36;3.63;;;2.27;;
3769;SDS011;1900;48.890;9.190;2022-11-20T15:10:08;3.43;;;2.30;;
3769;SDS011;1900;48.890;9.190;2022-11-20T15:12:40;3.00;;;1.97;;
3769;SDS011;1900;48.890;9.190;2022-11-20T15:18:19;5.87;;;2.17;;
3769;SDS011;1900;48.890;9.190;2022-11-20T15:20:47;3.90;;;1.90;;
3769;SDS011;1900;48.890;9.190;2022-11-20T15:23:14;5.80;;;2.33;;
3769;SDS011;1900;48.890;9.190;2022-11-20T15:25:43;3.80;;;1.90;;
3769;SDS011;1900;48.890;9.190;2022-11-20T15:28:16;4.47;;;1.80;;
3769;SDS011;1900;48.890;9.190;2022-11-20T15:30:46;4.47;;;2.03;;
3769;SDS011;1900;48.890;9.190;2022-11-20T15:33:13;6.47;;;3.80;;
3769;SDS011;1900;48.890;9.190;2022-11-20T15:35:39;2.80;;;2.20;;
3769;SDS011;1900;48.890;9.190;2022-11-20T15:38:05;5.23;;;2.27;;
3769;SDS011;1900;48.890;9.190;2022-11-20T15:40:31;4.10;;;2.17;;
3769;SDS011;1900;48.890;9.190;2022-11-20T15:42:57;11.90;;;2.47;;
3769;SDS011;1900;48.890;9.190;2022-11-20T15:48:58;5.83;;;2.40;;
3769;SDS011;1900;48.890;9.190;2022-11-20T15:51:32;3.77;;;2.27;;
3769;SDS011;1900;48.890;9.190;2022-11-20T15:54:00;6.50;;;2.33;;
3769;SDS011;1900;48.890;9.190;2022-11-20T15:56:27;3.43;;;2.30;;
3769;SDS011;1900;48.890;9.190;2022-11-20T15:58:52;5.20;;;2.07;;
3769;SDS011;1900;48.890;9.190;2022-11-20T16:01:19;4.80;;;1.90;;
3769;SDS011;1900;48.890;9.190;2022-11-20T16:03:46;4.57;;;2.33;;
3769;SDS011;1900;48.890;9.190;2022-11-20T16:06:13;2.20;;;2.00;;
3769;SDS011;1900;48.890;9.190;2022-11-20T16:08:41;3.23;;;2.20;;
3769;SDS011;1900;48.890;9.190;2022-11-20T16:11:06;2.47;;;2.23;;
3769;SDS011;1900;48.890;9.190;2022-11-20T16:13:35;4.80;;;3.03;;
3769;SDS011;1900;48.890;9.190;2022-11-20T16:16:23;3.80;;;3.50;;
3769;SDS011;1900;48.890;9.190;2022-11-20T16:18:59;3.43;;;2.53;;
3769;SDS011;1900;48.890;9.190;2022-11-20T16:21:25;4.30;;;2.13;;
3769;SDS011;1900;48.890;9.190;2022-11-20T16:24:01;2.77;;;1.90;;
3769;SDS011;1900;48.890;9.190;2022-11-20T16:26:28;4.63;;;2.43;;
3769;SDS011;1900;48.890;9.190;2022-11-20T16:28:55;4.63;;;2.10;;
3769;SDS011;1900;48.890;9.190;2022-11-20T16:31:21;3.70;;;2.20;;
3769;SDS011;1900;48.890;9.190;2022-11-20T16:33:50;4.33;;;2.70;;
3769;SDS011;1900;48.890;9.190;2022-11-20T16:36:17;2.40;;;2.20;;
3769;SDS011;1900;48.890;9.190;2022-11-20T16:38:43;3.97;;;2.47;;
3769;SDS011;1900;48.890;9.190;2022-11-20T16:41:09;3.07;;;2.17;;
3769;SDS011;1900;48.890;9.190;2022-11-20T16:43:45;5.37;;;2.70;;
3769;SDS011;1900;48.890;9.190;2022-11-20T16:46:15;3.30;;;2.37;;
3769;SDS011;1900;48.890;9.190;2022-11-20T16:48:43;2.33;;;2.13;;
3769;SDS011;1900;48.890;9.190;2022-11-20T16:51:09;3.90;;;2.40;;
3769;SDS011;1900;48.890;9.190;2022-11-20T16:53:36;5.60;;;2.80;;
3769;SDS011;1900;48.890;9.190;2022-11-20T16:56:13;3.80;;;2.70;;
3769;SDS011;1900;48.890;9.190;2022-11-20T16:58:41;5.30;;;3.47;;
3769;SDS011;1900;48.890;9.190;2022-11-20T17:01:08;6.00;;;4.60;;
3769;SDS011;1900;48.890;9.190;2022-11-20T17:03:39;10.80;;;7.67;;
3769;SDS011;1900;48.890;9.190;2022-11-20T17:06:15;16.47;;;9.70;;
3769;SDS011;1900;48.890;9.190;2022-11-20T17:08:42;7.00;;;4.70;;
3769;SDS011;1900;48.890;9.190;2022-11-20T17:11:10;8.77;;;5.33;;
3769;SDS011;1900;48.890;9.190;2022-11-20T17:13:37;4.37;;;2.90;;
3769;SDS011;1900;48.890;9.190;2022-11-20T17:16:04;4.97;;;3.03;;
3769;SDS011;1900;48.890;9.190;2022-11-20T17:18:31;3.33;;;2.63;;
3769;SDS011;1900;48.890;9.190;2022-11-20T17:20:57;4.50;;;3.30;;
3769;SDS011;1900;48.890;9.190;2022-11-20T17:23:27;3.67;;;3.20;;
3769;SDS011;1900;48.890;9.190;2022-11-20T17:25:59;3.43;;;3.07;;
3769;SDS011;1900;48.890;9.190;2022-11-20T17:28:27;7.63;;;3.27;;
3769;SDS011;1900;48.890;9.190;2022-11-20T17:30:57;6.20;;;2.90;;
3769;SDS011;1900;48.890;9.190;2022-11-20T17:33:27;4.90;;;2.67;;
3769;SDS011;1900;48.890;9.190;2022-11-20T17:35:53;4.63;;;2.63;;
3769;SDS011;1900;48.890;9.190;2022-11-20T17:38:19;7.30;;;3.00;;
3769;SDS011;1900;48.890;9.190;2022-11-20T17:40:45;5.70;;;3.50;;
3769;SDS011;1900;48.890;9.190;2022-11-20T17:43:11;22.50;;;9.67;;
3769;SDS011;1900;48.890;9.190;2022-11-20T17:45:36;42.07;;;16.47;;